Time;durP1;ratioP1;P1;durP2;ratioP2;P2;SDS_P1;SDS_P2;PMS_P1;PMS_P2;Temp;Humidity;BMP_temperature;BMP_pressure;BME280_temperature;BME280_humidity;BME280_pressure;Samples;Min_cycle;Max_cycle;Signal;HPM_P1;HPM_P2
2022/01/19 00:01:15;;;;;;;43.45;28.83;;;;;;;;;;5055682;28;20028;-46
2022/01/19 00:03:40;;;;;;;39.67;31.60;;;;;;;;;;5057593;28;20039;-47
2022/01/19 00:06:06;;;;;;;52.22;30.90;;;;;;;;;;5055384;28;20016;-45
2022/01/19 00:08:31;;;;;;;27.05;22.10;;;;;;;;;;5059809;28;20067;-45
2022/01/19 00:10:57;;;;;;;37.88;25.27;;;;;;;;;;5061607;28;20020;-46
2022/01/19 00:13:22;;;;;;;33.58;24.58;;;;;;;;;;5051484;28;20512;-44
2022/01/19 00:15:48;;;;;;;28.35;21.73;;;;;;;;;;5057259;28;20059;-47
2022/01/19 00:18:14;;;;;;;28.52;22.95;;;;;;;;;;5053441;28;20073;-46
2022/01/19 00:20:39;;;;;;;43.70;25.85;;;;;;;;;;5053998;28;20137;-47
2022/01/19 00:23:05;;;;;;;25.83;19.90;;;;;;;;;;5055905;28;20055;-50
2022/01/19 00:25:31;;;;;;;15.65;13.95;;;;;;;;;;5055562;28;20025;-45
2022/01/19 00:27:57;;;;;;;19.13;16.80;;;;;;;;;;5050211;28;20017;-45
2022/01/19 00:30:22;;;;;;;19.65;14.77;;;;;;;;;;5054338;28;20146;-46
2022/01/19 00:32:48;;;;;;;20.70;14.30;;;;;;;;;;5058647;28;20033;-44
2022/01/19 00:35:13;;;;;;;13.30;8.88;;;;;;;;;;5055563;28;20112;-47
2022/01/19 00:37:40;;;;;;;17.33;10.55;;;;;;;;;;5049808;28;20652;-45
2022/01/19 00:40:07;;;;;;;14.18;10.20;;;;;;;;;;5050576;28;20017;-50
2022/01/19 00:42:32;;;;;;;14.68;10.57;;;;;;;;;;5052756;28;20025;-46
2022/01/19 00:44:58;;;;;;;16.52;11.80;;;;;;;;;;5053427;28;20197;-45
2022/01/19 00:47:23;;;;;;;15.07;12.02;;;;;;;;;;5054822;28;20621;-44
2022/01/19 00:49:49;;;;;;;15.20;11.65;;;;;;;;;;5055571;28;20386;-47
2022/01/19 00:52:14;;;;;;;15.60;12.40;;;;;;;;;;5053106;28;20017;-45
2022/01/19 00:54:41;;;;;;;15.35;11.73;;;;;;;;;;5057432;28;20021;-48
2022/01/19 00:57:07;;;;;;;13.48;10.85;;;;;;;;;;5054673;28;20041;-47
2022/01/19 00:59:33;;;;;;;12.07;9.07;;;;;;;;;;5053202;28;20017;-45
2022/01/19 01:01:59;;;;;;;11.80;10.27;;;;;;;;;;5051563;28;20029;-43
2022/01/19 01:04:24;;;;;;;21.25;14.55;;;;;;;;;;5053303;28;20113;-46
2022/01/19 01:06:50;;;;;;;17.40;11.57;;;;;;;;;;5057961;28;20035;-46
2022/01/19 01:09:15;;;;;;;17.83;12.02;;;;;;;;;;5054902;28;20027;-49
2022/01/19 01:11:57;;;;;;;24.65;14.45;;;;;;;;;;5053266;28;20024;-46
2022/01/19 01:19:55;;;;;;;20.02;9.63;;;;;;;;;;5035344;28;20040;-44
2022/01/19 01:22:21;;;;;;;9.85;7.45;;;;;;;;;;5049965;28;20470;-47
2022/01/19 01:24:46;;;;;;;10.45;8.98;;;;;;;;;;5051413;28;20078;-47
2022/01/19 01:27:11;;;;;;;14.15;8.45;;;;;;;;;;5050883;28;20389;-45
2022/01/19 01:29:37;;;;;;;15.13;8.48;;;;;;;;;;5053630;28;20477;-47
2022/01/19 01:32:02;;;;;;;15.77;9.55;;;;;;;;;;5052390;28;20462;-47
2022/01/19 01:34:27;;;;;;;12.38;9.85;;;;;;;;;;5052005;28;20032;-48
2022/01/19 01:36:53;;;;;;;15.57;11.43;;;;;;;;;;5056416;28;20028;-49
2022/01/19 01:39:18;;;;;;;15.68;12.23;;;;;;;;;;5054267;28;20024;-45
2022/01/19 01:41:43;;;;;;;17.17;11.20;;;;;;;;;;5052774;28;20039;-49
2022/01/19 01:44:09;;;;;;;18.33;12.77;;;;;;;;;;5054699;28;20029;-47
2022/01/19 01:46:50;;;;;;;18.10;11.82;;;;;;;;;;5055220;28;20390;-47
2022/01/19 01:54:51;;;;;;;28.17;14.00;;;;;;;;;;5052527;28;20564;-46
2022/01/19 01:57:16;;;;;;;25.40;15.15;;;;;;;;;;5055921;28;20025;-44
2022/01/19 01:59:42;;;;;;;34.63;16.33;;;;;;;;;;5058015;28;20096;-46
2022/01/19 02:02:07;;;;;;;21.50;12.80;;;;;;;;;;5058583;28;20017;-46
2022/01/19 02:04:34;;;;;;;29.45;14.65;;;;;;;;;;5053532;28;20049;-49
2022/01/19 02:09:37;;;;;;;18.17;12.93;;;;;;;;;;5058224;28;20044;-48
2022/01/19 02:23:02;;;;;;;17.90;12.98;;;;;;;;;;5059744;28;20086;-47
2022/01/19 02:25:31;;;;;;;36.40;18.58;;;;;;;;;;5056674;28;20523;-47
2022/01/19 02:41:37;;;;;;;28.75;10.95;;;;;;;;;;5057250;28;20060;-45
2022/01/19 02:44:03;;;;;;;20.13;10.02;;;;;;;;;;5058217;28;20545;-43
2022/01/19 02:49:16;;;;;;;16.48;7.88;;;;;;;;;;5056234;28;20534;-47
2022/01/19 02:51:45;;;;;;;19.10;10.07;;;;;;;;;;5058743;28;20029;-45
2022/01/19 02:54:12;;;;;;;13.43;8.50;;;;;;;;;;5055196;28;20026;-46
2022/01/19 02:56:39;;;;;;;15.82;11.32;;;;;;;;;;5058844;28;20041;-47
2022/01/19 02:59:15;;;;;;;16.30;10.30;;;;;;;;;;5056466;28;20024;-45
2022/01/19 03:09:46;;;;;;;17.33;11.18;;;;;;;;;;5057384;28;20219;-47
2022/01/19 03:12:12;;;;;;;19.67;11.52;;;;;;;;;;5058149;28;20062;-44
2022/01/19 03:14:38;;;;;;;20.45;12.07;;;;;;;;;;5057388;28;20036;-46
2022/01/19 03:17:07;;;;;;;18.35;12.55;;;;;;;;;;5055573;28;20375;-47
2022/01/19 03:19:33;;;;;;;28.08;15.23;;;;;;;;;;5059968;28;20124;-43
2022/01/19 03:21:59;;;;;;;21.08;14.13;;;;;;;;;;5057369;28;20548;-49
2022/01/19 03:24:24;;;;;;;16.15;10.93;;;;;;;;;;5057577;28;20083;-48
2022/01/19 03:26:50;;;;;;;20.45;10.43;;;;;;;;;;5057179;28;20032;-47
2022/01/19 03:29:15;;;;;;;11.57;7.63;;;;;;;;;;5057493;28;20064;-50
2022/01/19 03:31:41;;;;;;;16.17;7.72;;;;;;;;;;5055350;28;20031;-50
2022/01/19 03:34:06;;;;;;;12.20;7.70;;;;;;;;;;5056659;28;20084;-49
2022/01/19 03:36:32;;;;;;;10.00;7.70;;;;;;;;;;5057922;28;20100;-45
2022/01/19 03:38:57;;;;;;;18.52;7.95;;;;;;;;;;5051860;28;20017;-46
2022/01/19 03:41:23;;;;;;;9.80;6.55;;;;;;;;;;5053323;28;20029;-48
2022/01/19 03:43:48;;;;;;;6.35;4.57;;;;;;;;;;5057743;28;20036;-49
2022/01/19 03:46:15;;;;;;;7.47;4.95;;;;;;;;;;5053915;28;20017;-46
2022/01/19 03:51:15;;;;;;;4.00;2.20;;;;;;;;;;5057464;28;20104;-47
2022/01/19 03:53:40;;;;;;;3.78;2.85;;;;;;;;;;5056342;28;20104;-47
2022/01/19 03:56:06;;;;;;;5.95;3.15;;;;;;;;;;5059948;28;20143;-46
2022/01/19 03:58:31;;;;;;;4.22;2.80;;;;;;;;;;5052466;28;20067;-45
2022/01/19 04:00:58;;;;;;;5.05;2.45;;;;;;;;;;5053954;28;20021;-45
2022/01/19 04:03:52;;;;;;;3.95;3.15;;;;;;;;;;5055713;28;20524;-47
2022/01/19 04:08:42;;;;;;;3.72;2.80;;;;;;;;;;5056745;28;20028;-48
2022/01/19 04:11:07;;;;;;;7.38;3.25;;;;;;;;;;5054876;28;20012;-47
2022/01/19 04:13:44;;;;;;;4.72;2.45;;;;;;;;;;5057236;28;20032;-44
2022/01/19 04:16:10;;;;;;;3.00;1.95;;;;;;;;;;5056095;28;20095;-47
2022/01/19 04:18:35;;;;;;;7.40;3.00;;;;;;;;;;5056651;28;20411;-48
2022/01/19 04:21:02;;;;;;;5.47;3.53;;;;;;;;;;5055426;28;20532;-47
2022/01/19 04:23:27;;;;;;;6.47;3.72;;;;;;;;;;5060137;28;20022;-44
2022/01/19 04:25:52;;;;;;;4.43;3.05;;;;;;;;;;5058923;28;20021;-45
2022/01/19 04:28:18;;;;;;;4.60;4.05;;;;;;;;;;5060147;28;20836;-44
2022/01/19 04:30:43;;;;;;;4.45;3.95;;;;;;;;;;5057688;28;20025;-44
2022/01/19 04:33:16;;;;;;;5.30;4.68;;;;;;;;;;5052500;28;20029;-46
2022/01/19 04:35:50;;;;;;;4.53;4.07;;;;;;;;;;5057729;28;20013;-45
2022/01/19 05:05:22;;;;;;;5.18;2.65;;;;;;;;;;5060757;28;20126;-45
2022/01/19 05:07:52;;;;;;;3.05;2.50;;;;;;;;;;5060489;28;20039;-45
2022/01/19 05:15:45;;;;;;;6.15;3.53;;;;;;;;;;5055028;28;20162;-47
2022/01/19 05:18:11;;;;;;;3.92;2.67;;;;;;;;;;5058300;28;20099;-45
2022/01/19 05:20:36;;;;;;;4.45;3.03;;;;;;;;;;5057619;28;20096;-44
2022/01/19 05:23:02;;;;;;;5.18;3.50;;;;;;;;;;5056530;28;20028;-44
2022/01/19 05:25:27;;;;;;;3.85;2.92;;;;;;;;;;5057998;28;20028;-44
2022/01/19 05:27:52;;;;;;;5.10;3.25;;;;;;;;;;5054136;28;20046;-48
2022/01/19 05:30:18;;;;;;;6.65;4.00;;;;;;;;;;5054171;28;20028;-50
2022/01/19 05:32:46;;;;;;;5.65;3.63;;;;;;;;;;5056989;28;20023;-45
2022/01/19 05:35:12;;;;;;;6.47;5.78;;;;;;;;;;5054590;28;20021;-49
2022/01/19 05:37:37;;;;;;;10.85;6.55;;;;;;;;;;5058743;28;20489;-45
2022/01/19 05:40:14;;;;;;;12.82;9.60;;;;;;;;;;5055144;28;20017;-49
2022/01/19 05:42:40;;;;;;;25.23;22.80;;;;;;;;;;5052709;28;20110;-44
2022/01/19 05:45:05;;;;;;;5.60;5.05;;;;;;;;;;5056467;28;20025;-50
2022/01/19 05:47:31;;;;;;;14.52;5.85;;;;;;;;;;5055112;28;20044;-45
2022/01/19 05:49:57;;;;;;;7.10;4.95;;;;;;;;;;5056107;28;20024;-46
2022/01/19 05:52:22;;;;;;;7.03;5.50;;;;;;;;;;5058343;28;20111;-46
2022/01/19 05:54:48;;;;;;;10.85;5.20;;;;;;;;;;5058600;28;20265;-44
2022/01/19 05:57:13;;;;;;;14.68;7.18;;;;;;;;;;5062252;28;20036;-48
2022/01/19 05:59:39;;;;;;;8.85;7.50;;;;;;;;;;5058193;28;20151;-46
2022/01/19 06:02:04;;;;;;;11.50;9.20;;;;;;;;;;5058900;28;20024;-45
2022/01/19 06:04:29;;;;;;;9.05;5.35;;;;;;;;;;5057099;28;20056;-47
2022/01/19 06:06:56;;;;;;;12.85;3.42;;;;;;;;;;5057520;28;20063;-46
2022/01/19 06:09:49;;;;;;;10.57;7.47;;;;;;;;;;5062192;28;20513;-45
2022/01/19 06:12:16;;;;;;;9.00;6.63;;;;;;;;;;5061601;28;20062;-46
2022/01/19 06:14:42;;;;;;;10.30;6.45;;;;;;;;;;5059744;28;20397;-45
2022/01/19 06:17:08;;;;;;;7.30;4.68;;;;;;;;;;5059427;28;20061;-44
2022/01/19 06:19:34;;;;;;;3.85;3.53;;;;;;;;;;5058537;28;20075;-45
2022/01/19 06:22:08;;;;;;;7.38;4.75;;;;;;;;;;5051884;28;20032;-47
2022/01/19 06:24:38;;;;;;;13.75;8.73;;;;;;;;;;5055759;28;20044;-45
2022/01/19 06:27:04;;;;;;;8.98;5.70;;;;;;;;;;5051364;28;20111;-44
2022/01/19 06:29:29;;;;;;;13.32;11.98;;;;;;;;;;5056688;28;20434;-44
2022/01/19 06:31:54;;;;;;;8.05;6.05;;;;;;;;;;5056357;28;20027;-46
2022/01/19 06:34:20;;;;;;;5.80;3.47;;;;;;;;;;5055490;28;20032;-46
2022/01/19 06:36:45;;;;;;;5.63;3.10;;;;;;;;;;5058784;28;20024;-49
2022/01/19 06:39:11;;;;;;;6.15;4.55;;;;;;;;;;5059750;28;20021;-48
2022/01/19 06:41:36;;;;;;;7.38;4.70;;;;;;;;;;5058072;28;20051;-47
2022/01/19 06:44:02;;;;;;;10.93;6.22;;;;;;;;;;5055414;28;20519;-45
2022/01/19 06:46:27;;;;;;;12.85;7.15;;;;;;;;;;5055491;28;20013;-43
2022/01/19 06:48:52;;;;;;;6.50;5.30;;;;;;;;;;5052837;28;20445;-46
2022/01/19 06:51:18;;;;;;;4.15;2.90;;;;;;;;;;5057444;28;20017;-49
2022/01/19 06:53:43;;;;;;;6.78;5.80;;;;;;;;;;5055167;28;20107;-48
2022/01/19 06:56:08;;;;;;;5.63;3.60;;;;;;;;;;5053969;28;20041;-46
2022/01/19 06:58:34;;;;;;;5.70;3.53;;;;;;;;;;5053938;28;20017;-47
2022/01/19 07:00:59;;;;;;;13.25;5.88;;;;;;;;;;5054978;28;20075;-44
2022/01/19 07:03:25;;;;;;;9.68;8.65;;;;;;;;;;5056653;28;20021;-45
2022/01/19 07:05:50;;;;;;;10.48;9.20;;;;;;;;;;5055915;28;20012;-47
2022/01/19 07:08:16;;;;;;;7.28;4.90;;;;;;;;;;5054094;28;20009;-48
2022/01/19 07:10:41;;;;;;;10.23;5.95;;;;;;;;;;5061513;28;20028;-46
2022/01/19 07:13:07;;;;;;;12.25;6.85;;;;;;;;;;5059406;28;20021;-45
2022/01/19 07:15:32;;;;;;;19.10;9.70;;;;;;;;;;5052100;28;20056;-46
2022/01/19 07:17:58;;;;;;;10.55;7.30;;;;;;;;;;5052420;28;20127;-46
2022/01/19 07:20:23;;;;;;;13.60;10.48;;;;;;;;;;5054401;28;20033;-46
2022/01/19 07:22:49;;;;;;;15.43;7.18;;;;;;;;;;5057632;28;20359;-45
2022/01/19 07:25:15;;;;;;;8.80;4.90;;;;;;;;;;5053761;28;20017;-47
2022/01/19 07:27:41;;;;;;;8.43;6.68;;;;;;;;;;5053909;28;20112;-43
2022/01/19 07:30:07;;;;;;;6.32;4.32;;;;;;;;;;5054621;28;20135;-44
2022/01/19 07:32:34;;;;;;;7.30;4.78;;;;;;;;;;5057498;28;20062;-47
2022/01/19 07:35:00;;;;;;;31.30;9.05;;;;;;;;;;5053221;28;20143;-48
2022/01/19 07:37:25;;;;;;;14.55;7.63;;;;;;;;;;5055933;28;20577;-40
2022/01/19 07:39:51;;;;;;;16.23;6.68;;;;;;;;;;5055383;28;20562;-44
2022/01/19 07:42:16;;;;;;;17.05;9.30;;;;;;;;;;5058476;28;20470;-43
2022/01/19 07:44:41;;;;;;;24.50;10.88;;;;;;;;;;5058120;28;20163;-42
2022/01/19 07:47:07;;;;;;;14.98;9.02;;;;;;;;;;5054355;28;20413;-42
2022/01/19 07:49:32;;;;;;;18.52;12.32;;;;;;;;;;5054085;28;20017;-44
2022/01/19 07:51:58;;;;;;;22.67;13.65;;;;;;;;;;5056031;28;20040;-45
2022/01/19 07:54:23;;;;;;;23.38;15.82;;;;;;;;;;5054940;28;20021;-41
2022/01/19 07:56:48;;;;;;;29.52;14.57;;;;;;;;;;5055260;28;20859;-43
2022/01/19 07:59:14;;;;;;;30.25;15.65;;;;;;;;;;5054200;28;20035;-42
2022/01/19 08:01:39;;;;;;;54.38;32.17;;;;;;;;;;5057384;28;20400;-44
2022/01/19 08:04:05;;;;;;;69.95;36.22;;;;;;;;;;5056121;28;20501;-44
2022/01/19 08:06:30;;;;;;;72.63;39.45;;;;;;;;;;5055627;28;20512;-41
2022/01/19 08:08:56;;;;;;;50.67;33.13;;;;;;;;;;5055300;28;20648;-41
2022/01/19 08:11:21;;;;;;;71.90;38.88;;;;;;;;;;5057254;28;20092;-42
2022/01/19 08:13:46;;;;;;;50.10;32.65;;;;;;;;;;5056050;28;20028;-43
2022/01/19 08:16:12;;;;;;;88.07;50.08;;;;;;;;;;5053026;28;20485;-46
2022/01/19 08:18:40;;;;;;;111.50;68.78;;;;;;;;;;5057541;28;20119;-42
2022/01/19 08:21:05;;;;;;;116.93;67.25;;;;;;;;;;5058415;28;20094;-40
2022/01/19 08:23:31;;;;;;;104.22;75.03;;;;;;;;;;5056904;28;20029;-46
2022/01/19 08:25:56;;;;;;;121.97;84.55;;;;;;;;;;5058726;28;20477;-42
2022/01/19 08:28:21;;;;;;;120.07;83.50;;;;;;;;;;5056949;28;20024;-45
2022/01/19 08:30:47;;;;;;;123.95;78.93;;;;;;;;;;5056051;28;20458;-42
2022/01/19 08:33:12;;;;;;;92.10;61.30;;;;;;;;;;5051828;28;20016;-45
2022/01/19 08:35:38;;;;;;;94.00;61.80;;;;;;;;;;5054373;28;20017;-45
2022/01/19 08:38:03;;;;;;;100.30;71.55;;;;;;;;;;5052836;28;20487;-43
2022/01/19 08:40:30;;;;;;;125.45;84.75;;;;;;;;;;5052857;28;20120;-46
2022/01/19 08:42:56;;;;;;;135.60;83.50;;;;;;;;;;5055705;28;20025;-42
2022/01/19 08:45:21;;;;;;;117.88;87.03;;;;;;;;;;5060033;28;20240;-47
2022/01/19 08:47:47;;;;;;;237.27;142.52;;;;;;;;;;5054694;28;20388;-41
2022/01/19 08:50:13;;;;;;;165.40;104.68;;;;;;;;;;5054813;28;20085;-43
2022/01/19 08:52:38;;;;;;;154.95;94.53;;;;;;;;;;5055474;28;20040;-41
2022/01/19 08:55:04;;;;;;;122.68;90.72;;;;;;;;;;5055729;28;20494;-44
2022/01/19 08:57:30;;;;;;;145.07;91.55;;;;;;;;;;5052926;28;20033;-41
2022/01/19 08:59:56;;;;;;;147.85;91.10;;;;;;;;;;5053906;28;20024;-43
2022/01/19 09:02:21;;;;;;;100.10;83.30;;;;;;;;;;5052803;28;20035;-44
2022/01/19 09:04:47;;;;;;;115.97;77.07;;;;;;;;;;5056922;28;20031;-45
2022/01/19 09:07:12;;;;;;;121.80;77.55;;;;;;;;;;5053884;28;20485;-42
2022/01/19 09:09:37;;;;;;;158.35;91.07;;;;;;;;;;5054947;28;20088;-42
2022/01/19 09:12:03;;;;;;;120.28;88.25;;;;;;;;;;5052093;28;20031;-40
2022/01/19 09:14:30;;;;;;;103.78;67.47;;;;;;;;;;5054239;28;20116;-41
2022/01/19 09:16:56;;;;;;;104.22;60.83;;;;;;;;;;5053199;28;20343;-44
2022/01/19 09:19:21;;;;;;;165.45;77.93;;;;;;;;;;5052620;28;20023;-42
2022/01/19 09:21:47;;;;;;;132.45;80.05;;;;;;;;;;5050249;28;20016;-43
2022/01/19 09:24:13;;;;;;;133.38;72.65;;;;;;;;;;5055827;28;20517;-41
2022/01/19 09:26:38;;;;;;;146.13;76.05;;;;;;;;;;5052540;28;20233;-41
2022/01/19 09:29:04;;;;;;;87.07;73.40;;;;;;;;;;5057030;28;20123;-44
2022/01/19 09:31:29;;;;;;;123.93;88.25;;;;;;;;;;5054306;28;20466;-44
2022/01/19 09:34:06;;;;;;;108.05;87.05;;;;;;;;;;5060409;28;20016;-43
2022/01/19 09:36:34;;;;;;;95.25;82.32;;;;;;;;;;5057776;28;20017;-42
2022/01/19 09:39:00;;;;;;;78.47;57.50;;;;;;;;;;5055661;28;20044;-45
2022/01/19 09:41:25;;;;;;;58.70;44.13;;;;;;;;;;5055629;28;20021;-41
2022/01/19 09:43:50;;;;;;;57.50;43.13;;;;;;;;;;5058208;28;20028;-41
2022/01/19 09:46:16;;;;;;;43.03;38.42;;;;;;;;;;5052943;28;20052;-45
2022/01/19 09:48:41;;;;;;;51.28;37.65;;;;;;;;;;5053581;28;20078;-40
2022/01/19 09:51:07;;;;;;;52.90;39.17;;;;;;;;;;5053160;28;20021;-42
2022/01/19 09:53:32;;;;;;;54.50;36.47;;;;;;;;;;5055601;28;20488;-42
2022/01/19 09:55:57;;;;;;;66.05;41.25;;;;;;;;;;5056789;28;20048;-44
2022/01/19 09:58:23;;;;;;;65.60;41.50;;;;;;;;;;5052398;28;20013;-42
2022/01/19 10:00:49;;;;;;;46.80;35.38;;;;;;;;;;5062008;28;20479;-42
2022/01/19 10:03:18;;;;;;;54.63;39.22;;;;;;;;;;5059393;28;20024;-43
2022/01/19 10:05:54;;;;;;;59.53;44.72;;;;;;;;;;5054309;28;20040;-41
2022/01/19 10:08:27;;;;;;;64.15;47.22;;;;;;;;;;5054475;28;20025;-42
2022/01/19 10:11:04;;;;;;;62.60;47.25;;;;;;;;;;5057892;28;20067;-42
2022/01/19 10:19:26;;;;;;;44.58;36.08;;;;;;;;;;5047148;28;20029;-42
2022/01/19 10:21:55;;;;;;;51.78;32.28;;;;;;;;;;5046323;28;20056;-43
2022/01/19 10:24:31;;;;;;;43.15;31.65;;;;;;;;;;5050522;28;20379;-44
2022/01/19 10:27:17;;;;;;;34.20;26.98;;;;;;;;;;5054551;28;20108;-41
2022/01/19 10:29:42;;;;;;;37.15;30.98;;;;;;;;;;5054112;28;20035;-43
2022/01/19 10:32:07;;;;;;;39.65;28.52;;;;;;;;;;5056341;28;20012;-43
2022/01/19 10:34:33;;;;;;;42.08;29.35;;;;;;;;;;5055220;28;20019;-43
2022/01/19 10:37:03;;;;;;;40.42;29.92;;;;;;;;;;5057464;28;20020;-45
2022/01/19 10:39:39;;;;;;;43.65;32.78;;;;;;;;;;5056678;28;20476;-45
2022/01/19 10:42:07;;;;;;;37.28;25.85;;;;;;;;;;5054344;28;20032;-43
2022/01/19 10:44:45;;;;;;;22.00;14.35;;;;;;;;;;5050716;28;20021;-44
2022/01/19 10:47:11;;;;;;;11.13;6.63;;;;;;;;;;5053096;28;20017;-43
2022/01/19 10:49:47;;;;;;;12.48;7.18;;;;;;;;;;5054750;28;20032;-46
2022/01/19 10:52:44;;;;;;;7.28;4.63;;;;;;;;;;5057109;28;20024;-41
2022/01/19 10:55:25;;;;;;;5.07;3.80;;;;;;;;;;5055043;28;20049;-39
2022/01/19 10:57:51;;;;;;;4.05;3.45;;;;;;;;;;5056294;28;20027;-39
2022/01/19 11:00:24;;;;;;;14.25;8.20;;;;;;;;;;5057840;28;20032;-41
2022/01/19 11:02:51;;;;;;;11.13;5.82;;;;;;;;;;5058250;28;20025;-38
2022/01/19 11:05:17;;;;;;;13.10;4.95;;;;;;;;;;5058139;28;20060;-41
2022/01/19 11:07:42;;;;;;;3.15;2.85;;;;;;;;;;5055288;28;20056;-39
2022/01/19 11:10:18;;;;;;;3.05;2.70;;;;;;;;;;5054368;28;20040;-38
2022/01/19 11:12:55;;;;;;;7.15;2.40;;;;;;;;;;5056891;28;20031;-41
2022/01/19 11:15:21;;;;;;;5.15;3.83;;;;;;;;;;5052218;28;20028;-38
2022/01/19 11:17:47;;;;;;;8.75;3.67;;;;;;;;;;5052293;28;20021;-39
2022/01/19 11:20:14;;;;;;;6.30;4.32;;;;;;;;;;5051745;28;20429;-38
2022/01/19 11:22:40;;;;;;;6.45;4.53;;;;;;;;;;5057873;28;20387;-39
2022/01/19 11:25:16;;;;;;;6.97;4.80;;;;;;;;;;5054057;28;20052;-39
2022/01/19 11:27:43;;;;;;;7.60;5.75;;;;;;;;;;5059995;28;20059;-38
2022/01/19 11:30:11;;;;;;;17.63;4.60;;;;;;;;;;5055855;28;20012;-43
2022/01/19 11:32:37;;;;;;;8.10;4.85;;;;;;;;;;5054596;28;20559;-39
2022/01/19 11:35:03;;;;;;;10.23;7.38;;;;;;;;;;5055463;28;20024;-40
2022/01/19 11:37:33;;;;;;;9.07;7.32;;;;;;;;;;5056647;28;20581;-39
2022/01/19 11:40:06;;;;;;;11.05;7.80;;;;;;;;;;5059362;28;20021;-37
2022/01/19 11:42:32;;;;;;;11.85;6.10;;;;;;;;;;5057745;28;20285;-38
2022/01/19 11:44:57;;;;;;;14.60;8.38;;;;;;;;;;5059015;28;20490;-40
2022/01/19 11:47:24;;;;;;;12.88;7.65;;;;;;;;;;5054287;28;20043;-40
2022/01/19 11:49:53;;;;;;;12.18;9.77;;;;;;;;;;5052244;28;20237;-41
2022/01/19 11:52:19;;;;;;;14.75;10.48;;;;;;;;;;5055831;28;20051;-41
2022/01/19 11:54:45;;;;;;;20.02;14.38;;;;;;;;;;5055013;28;20021;-41
2022/01/19 11:57:10;;;;;;;22.80;16.55;;;;;;;;;;5049901;28;20032;-38
2022/01/19 11:59:36;;;;;;;19.20;10.95;;;;;;;;;;5052097;28;20025;-39
2022/01/19 12:02:20;;;;;;;10.18;6.50;;;;;;;;;;5052486;28;20028;-39
2022/01/19 12:04:45;;;;;;;10.18;4.15;;;;;;;;;;5053937;28;20049;-38
2022/01/19 12:07:30;;;;;;;4.95;3.83;;;;;;;;;;5053010;28;20074;-42
2022/01/19 12:09:57;;;;;;;13.65;4.72;;;;;;;;;;5054255;28;20024;-39
2022/01/19 12:12:25;;;;;;;9.55;5.47;;;;;;;;;;5057067;28;20042;-40
2022/01/19 12:14:52;;;;;;;4.00;3.28;;;;;;;;;;5050617;28;20024;-41
2022/01/19 12:17:26;;;;;;;4.10;2.35;;;;;;;;;;5050629;28;20071;-42
2022/01/19 12:19:52;;;;;;;2.20;1.52;;;;;;;;;;5057197;28;20365;-39
2022/01/19 12:22:19;;;;;;;10.50;5.07;;;;;;;;;;5047856;28;20024;-41
2022/01/19 12:24:56;;;;;;;4.60;3.67;;;;;;;;;;5054228;28;20028;-38
2022/01/19 12:27:23;;;;;;;3.67;2.75;;;;;;;;;;5058174;28;20032;-39
2022/01/19 12:30:05;;;;;;;4.25;2.22;;;;;;;;;;5053415;28;20047;-41
2022/01/19 12:32:41;;;;;;;3.65;2.35;;;;;;;;;;5052195;28;20791;-41
2022/01/19 12:35:11;;;;;;;4.63;2.80;;;;;;;;;;5051438;28;20028;-42
2022/01/19 12:37:42;;;;;;;4.00;2.17;;;;;;;;;;5052596;28;20087;-40
2022/01/19 12:40:07;;;;;;;8.27;2.72;;;;;;;;;;5052554;28;20022;-38
2022/01/19 12:42:47;;;;;;;4.18;2.88;;;;;;;;;;5052727;28;20252;-38
2022/01/19 12:45:16;;;;;;;2.85;1.80;;;;;;;;;;5056240;28;20028;-38
2022/01/19 12:47:43;;;;;;;3.83;2.10;;;;;;;;;;5053460;28;20098;-40
2022/01/19 12:50:08;;;;;;;2.85;1.70;;;;;;;;;;5055086;28;20048;-45
2022/01/19 12:52:34;;;;;;;3.60;2.90;;;;;;;;;;5053170;28;20044;-38
2022/01/19 12:55:10;;;;;;;4.93;2.47;;;;;;;;;;5052325;28;20067;-40
2022/01/19 12:57:35;;;;;;;3.20;2.03;;;;;;;;;;5053935;28;20070;-39
2022/01/19 13:00:01;;;;;;;6.10;3.15;;;;;;;;;;5052975;28;20029;-39
2022/01/19 13:02:29;;;;;;;2.38;1.52;;;;;;;;;;5054197;28;20021;-40
2022/01/19 13:05:03;;;;;;;2.28;1.52;;;;;;;;;;5055265;28;20028;-37
2022/01/19 13:07:30;;;;;;;2.75;1.65;;;;;;;;;;5053779;28;20060;-41
2022/01/19 13:15:42;;;;;;;2.65;1.83;;;;;;;;;;5057621;28;20501;-41
2022/01/19 13:18:08;;;;;;;3.47;2.15;;;;;;;;;;5057743;28;20440;-37
2022/01/19 13:20:34;;;;;;;3.85;2.88;;;;;;;;;;5053738;28;20502;-38
2022/01/19 13:22:59;;;;;;;4.55;2.92;;;;;;;;;;5055332;28;20036;-41
2022/01/19 13:25:26;;;;;;;4.05;2.30;;;;;;;;;;5054997;28;20443;-39
2022/01/19 13:27:55;;;;;;;3.90;2.83;;;;;;;;;;5054941;28;20031;-39
2022/01/19 13:30:21;;;;;;;5.20;4.05;;;;;;;;;;5057242;28;20529;-39
2022/01/19 13:32:46;;;;;;;5.65;4.50;;;;;;;;;;5055029;28;20045;-38
2022/01/19 13:35:12;;;;;;;4.50;3.65;;;;;;;;;;5054654;28;20039;-40
2022/01/19 13:37:51;;;;;;;2.47;2.05;;;;;;;;;;5050927;28;20027;-41
2022/01/19 13:40:17;;;;;;;2.17;1.67;;;;;;;;;;5053960;28;20111;-43
2022/01/19 13:42:56;;;;;;;4.55;3.58;;;;;;;;;;5052772;28;20684;-38
2022/01/19 13:45:30;;;;;;;6.82;5.05;;;;;;;;;;5057139;28;20024;-41
2022/01/19 13:48:19;;;;;;;4.85;3.58;;;;;;;;;;5055279;28;20024;-38
2022/01/19 13:50:44;;;;;;;4.70;3.65;;;;;;;;;;5055330;28;20108;-38
2022/01/19 13:53:09;;;;;;;4.47;3.20;;;;;;;;;;5054539;28;20171;-38
2022/01/19 13:55:35;;;;;;;5.25;3.47;;;;;;;;;;5054991;28;20060;-38
2022/01/19 13:58:12;;;;;;;5.55;4.80;;;;;;;;;;5052687;28;20009;-38
2022/01/19 14:00:47;;;;;;;10.60;6.22;;;;;;;;;;5052792;28;20120;-37
2022/01/19 14:03:13;;;;;;;10.15;8.32;;;;;;;;;;5048050;28;20713;-40
2022/01/19 14:05:40;;;;;;;10.32;6.43;;;;;;;;;;5055235;28;20170;-41
2022/01/19 14:08:06;;;;;;;6.88;5.55;;;;;;;;;;5054514;28;20032;-38
2022/01/19 14:11:00;;;;;;;17.15;9.40;;;;;;;;;;5056617;28;20021;-40
2022/01/19 14:13:29;;;;;;;5.53;4.70;;;;;;;;;;5049060;28;20060;-38
2022/01/19 14:15:57;;;;;;;7.72;5.15;;;;;;;;;;5055409;28;20019;-37
2022/01/19 14:18:24;;;;;;;7.72;5.20;;;;;;;;;;5055370;28;20031;-39
2022/01/19 14:21:07;;;;;;;6.32;5.72;;;;;;;;;;5055104;28;20033;-40
2022/01/19 14:23:33;;;;;;;5.88;5.22;;;;;;;;;;5056263;28;20029;-39
2022/01/19 14:26:05;;;;;;;11.95;5.35;;;;;;;;;;5056901;28;20823;-37
2022/01/19 14:28:30;;;;;;;8.98;5.90;;;;;;;;;;5057590;28;20473;-40
2022/01/19 14:31:01;;;;;;;7.38;4.90;;;;;;;;;;5060153;28;20028;-37
2022/01/19 14:33:26;;;;;;;12.10;5.17;;;;;;;;;;5057518;28;20021;-38
2022/01/19 14:35:56;;;;;;;12.43;5.53;;;;;;;;;;5055908;28;20459;-41
2022/01/19 14:38:31;;;;;;;12.18;5.68;;;;;;;;;;5056233;28;20024;-37
2022/01/19 14:41:00;;;;;;;9.52;5.85;;;;;;;;;;5055743;28;20034;-38
2022/01/19 14:43:48;;;;;;;8.55;6.47;;;;;;;;;;5057093;28;20115;-37
2022/01/19 14:46:19;;;;;;;12.30;5.25;;;;;;;;;;5056521;28;20074;-41
2022/01/19 14:48:45;;;;;;;13.15;8.00;;;;;;;;;;5054536;28;20375;-38
2022/01/19 14:51:24;;;;;;;13.48;6.72;;;;;;;;;;5053290;28;20051;-38
2022/01/19 14:54:19;;;;;;;6.43;5.65;;;;;;;;;;5057308;28;20021;-39
2022/01/19 14:56:44;;;;;;;8.82;6.15;;;;;;;;;;5052404;28;20049;-38
2022/01/19 14:59:11;;;;;;;9.82;7.15;;;;;;;;;;5055070;28;20330;-37
2022/01/19 15:01:37;;;;;;;9.52;8.45;;;;;;;;;;5054088;28;20012;-38
2022/01/19 15:04:04;;;;;;;11.07;7.03;;;;;;;;;;5055651;28;20024;-39
2022/01/19 15:06:29;;;;;;;10.30;7.57;;;;;;;;;;5055930;28;20028;-37
2022/01/19 15:08:55;;;;;;;7.28;6.55;;;;;;;;;;5052847;28;20346;-38
2022/01/19 15:11:20;;;;;;;7.10;5.32;;;;;;;;;;5061647;28;20738;-37
2022/01/19 15:13:46;;;;;;;9.10;8.18;;;;;;;;;;5057322;28;20055;-37
2022/01/19 15:16:11;;;;;;;10.63;7.70;;;;;;;;;;5053064;28;20021;-39
2022/01/19 15:18:37;;;;;;;7.20;6.50;;;;;;;;;;5055206;28;20100;-39
2022/01/19 15:21:02;;;;;;;6.45;5.55;;;;;;;;;;5058126;28;20625;-38
2022/01/19 15:23:28;;;;;;;21.17;15.85;;;;;;;;;;5057797;28;20466;-38
2022/01/19 15:25:57;;;;;;;14.48;13.13;;;;;;;;;;5056297;28;20111;-41
2022/01/19 15:28:22;;;;;;;14.43;10.52;;;;;;;;;;5055565;28;20072;-39
2022/01/19 15:30:49;;;;;;;16.70;11.32;;;;;;;;;;5056330;28;20024;-38
2022/01/19 15:33:14;;;;;;;16.35;10.30;;;;;;;;;;5055939;28;20386;-39
2022/01/19 15:35:40;;;;;;;11.25;9.52;;;;;;;;;;5053795;28;20036;-40
2022/01/19 15:38:06;;;;;;;12.77;11.30;;;;;;;;;;5058501;28;20709;-41
2022/01/19 15:40:32;;;;;;;15.70;11.52;;;;;;;;;;5056141;28;20032;-38
2022/01/19 15:42:59;;;;;;;17.55;10.63;;;;;;;;;;5049993;28;20021;-38
2022/01/19 15:45:24;;;;;;;18.77;12.30;;;;;;;;;;5053551;28;20036;-40
2022/01/19 15:47:51;;;;;;;16.25;11.90;;;;;;;;;;5057480;28;20029;-40
2022/01/19 15:50:17;;;;;;;22.00;17.73;;;;;;;;;;5053985;28;20024;-38
2022/01/19 15:52:43;;;;;;;15.20;13.70;;;;;;;;;;5054311;28;20078;-38
2022/01/19 15:55:08;;;;;;;28.83;24.27;;;;;;;;;;5053093;28;20053;-38
2022/01/19 15:57:34;;;;;;;17.48;15.65;;;;;;;;;;5057349;28;20025;-37
2022/01/19 16:00:00;;;;;;;18.58;16.63;;;;;;;;;;5055520;28;20037;-38
2022/01/19 16:02:25;;;;;;;15.73;14.20;;;;;;;;;;5054268;28;20048;-40
2022/01/19 16:04:51;;;;;;;17.20;13.73;;;;;;;;;;5055140;28;20332;-38
2022/01/19 16:07:16;;;;;;;14.98;11.27;;;;;;;;;;5056210;28;20045;-41
2022/01/19 16:09:42;;;;;;;20.17;18.17;;;;;;;;;;5053912;28;20393;-38